createdAt,value
2023-05-23T00:01:39.908Z,23.41
2023-05-23T00:04:06.944Z,23.39
2023-05-23T00:06:34.305Z,23.34
2023-05-23T00:09:01.360Z,23.35
2023-05-23T00:11:29.159Z,23.34
2023-05-23T00:14:01.039Z,23.33
2023-05-23T00:16:28.005Z,23.32
2023-05-23T00:18:57.532Z,23.30
2023-05-23T00:21:24.564Z,23.28
2023-05-23T00:23:51.450Z,23.27
2023-05-23T00:26:18.324Z,23.24
2023-05-23T00:28:45.217Z,23.21
2023-05-23T00:31:12.178Z,23.21
2023-05-23T00:33:39.017Z,23.21
2023-05-23T00:36:06.097Z,23.22
2023-05-23T00:38:33.017Z,23.20
2023-05-23T00:41:00.146Z,23.20
2023-05-23T00:43:27.526Z,23.18
2023-05-23T00:45:54.352Z,23.17
2023-05-23T00:48:21.585Z,23.17
2023-05-23T00:50:48.536Z,23.17
2023-05-23T00:53:16.926Z,23.16
2023-05-23T00:55:45.009Z,23.15
2023-05-23T00:58:13.128Z,23.13
2023-05-23T01:00:40.190Z,23.12
2023-05-23T01:03:07.121Z,23.12
2023-05-23T01:05:34.032Z,23.14
2023-05-23T01:08:03.306Z,23.16
2023-05-23T01:10:31.485Z,23.16
2023-05-23T01:13:20.922Z,23.17
2023-05-23T01:16:02.961Z,23.16
2023-05-23T01:18:38.377Z,23.15
2023-05-23T01:21:17.028Z,23.15
2023-05-23T01:24:12.818Z,23.15
2023-05-23T01:27:11.755Z,23.12
2023-05-23T01:29:45.704Z,23.09
2023-05-23T01:32:14.389Z,23.08
2023-05-23T01:34:43.703Z,23.07
2023-05-23T01:37:14.463Z,23.03
2023-05-23T01:39:42.164Z,22.99
2023-05-23T01:42:09.540Z,22.96
2023-05-23T01:44:37.331Z,22.93
2023-05-23T01:47:06.094Z,22.95
2023-05-23T01:49:34.463Z,22.91
2023-05-23T01:52:02.500Z,22.87
2023-05-23T01:54:30.532Z,22.82
2023-05-23T01:56:58.199Z,22.77
2023-05-23T01:59:25.411Z,22.74
2023-05-23T02:01:52.843Z,22.73
2023-05-23T02:04:19.703Z,22.71
2023-05-23T02:06:47.336Z,22.64
2023-05-23T02:09:14.555Z,22.57
2023-05-23T02:11:41.399Z,22.48
2023-05-23T02:14:09.393Z,22.38
2023-05-23T02:16:36.655Z,22.28
2023-05-23T02:19:04.169Z,22.18
2023-05-23T02:21:34.283Z,22.12
2023-05-23T02:24:02.014Z,22.06
2023-05-23T02:26:28.932Z,21.98
2023-05-23T02:28:55.778Z,21.85
2023-05-23T02:31:23.491Z,21.78
2023-05-23T02:33:50.432Z,21.70
2023-05-23T02:36:17.269Z,21.63
2023-05-23T02:38:44.084Z,21.58
2023-05-23T02:41:11.009Z,21.51
2023-05-23T02:43:39.231Z,21.44
2023-05-23T02:46:06.068Z,21.41
2023-05-23T02:48:32.890Z,21.38
2023-05-23T02:50:59.921Z,21.35
2023-05-23T02:53:26.931Z,21.31
2023-05-23T02:55:53.751Z,21.27
2023-05-23T02:58:20.738Z,21.25
2023-05-23T03:00:47.657Z,21.19
2023-05-23T03:03:14.724Z,21.14
2023-05-23T03:05:42.158Z,21.09
2023-05-23T03:08:09.312Z,21.07
2023-05-23T03:10:36.357Z,21.04
2023-05-23T03:13:03.428Z,21.00
2023-05-23T03:15:30.429Z,20.97
2023-05-23T03:17:57.429Z,20.97
2023-05-23T03:20:24.468Z,20.99
2023-05-23T03:22:51.448Z,20.97
2023-05-23T03:25:18.391Z,20.97
2023-05-23T03:27:45.694Z,20.95
2023-05-23T03:30:13.419Z,20.94
2023-05-23T03:32:40.459Z,20.90
2023-05-23T03:35:08.202Z,20.86
2023-05-23T03:37:35.346Z,20.81
2023-05-23T03:40:02.506Z,20.79
2023-05-23T03:42:30.045Z,20.76
2023-05-23T03:44:57.769Z,20.72
2023-05-23T03:47:24.774Z,20.68
2023-05-23T03:49:51.835Z,20.66
2023-05-23T03:52:18.885Z,20.69
2023-05-23T03:54:46.206Z,20.71
2023-05-23T03:57:13.147Z,20.73
2023-05-23T03:59:40.183Z,20.78
2023-05-23T04:02:07.384Z,20.79
2023-05-23T04:04:34.508Z,20.77
2023-05-23T04:07:01.739Z,20.74
2023-05-23T04:09:29.118Z,20.72
2023-05-23T04:11:56.141Z,20.70
2023-05-23T04:14:24.280Z,20.66
2023-05-23T04:16:51.431Z,20.65
2023-05-23T04:19:18.560Z,20.67
2023-05-23T04:21:45.508Z,20.68
2023-05-23T04:24:12.392Z,20.68
2023-05-23T04:26:39.428Z,20.67
2023-05-23T04:29:06.530Z,20.68
2023-05-23T04:31:34.282Z,20.69
2023-05-23T04:34:02.441Z,20.73
2023-05-23T04:36:30.204Z,20.77
2023-05-23T04:38:57.052Z,20.79
2023-05-23T04:41:24.104Z,20.79
2023-05-23T04:43:54.266Z,20.80
2023-05-23T04:46:27.565Z,20.80
2023-05-23T04:48:55.147Z,20.80
2023-05-23T04:51:22.285Z,20.78
2023-05-23T04:53:50.977Z,20.75
2023-05-23T04:56:19.392Z,20.69
2023-05-23T04:58:48.111Z,20.66
2023-05-23T05:01:15.670Z,20.63
2023-05-23T05:03:42.796Z,20.65
2023-05-23T05:06:09.694Z,20.69
2023-05-23T05:08:36.829Z,20.71
2023-05-23T05:11:03.686Z,20.70
2023-05-23T05:13:30.510Z,20.71
2023-05-23T05:15:57.359Z,20.72
2023-05-23T05:18:24.437Z,20.71
2023-05-23T05:20:51.243Z,20.69
2023-05-23T05:23:18.165Z,20.69
2023-05-23T05:25:45.946Z,20.70
2023-05-23T05:28:12.883Z,20.67
2023-05-23T05:30:40.118Z,20.62
2023-05-23T05:33:07.777Z,20.59
2023-05-23T05:35:40.486Z,20.60
2023-05-23T05:38:08.431Z,20.59
2023-05-23T05:40:35.405Z,20.63
2023-05-23T05:43:02.374Z,20.66
2023-05-23T05:45:29.214Z,20.65
2023-05-23T05:47:56.075Z,20.66
2023-05-23T05:50:22.961Z,20.66
2023-05-23T05:52:49.837Z,20.65
2023-05-23T05:55:16.896Z,20.61
2023-05-23T05:57:43.771Z,20.57
2023-05-23T06:00:15.125Z,20.54
2023-05-23T06:02:51.500Z,20.55
2023-05-23T06:05:18.537Z,20.58
2023-05-23T06:07:45.470Z,20.58
2023-05-23T06:10:13.720Z,20.60
2023-05-23T06:12:40.900Z,20.61
2023-05-23T06:15:09.601Z,20.61
2023-05-23T06:17:36.496Z,20.59
2023-05-23T06:20:04.945Z,20.57
2023-05-23T06:22:31.970Z,20.53
2023-05-23T06:24:58.893Z,20.51
2023-05-23T06:27:25.750Z,20.49
2023-05-23T06:29:52.721Z,20.50
2023-05-23T06:32:20.729Z,20.52
2023-05-23T06:34:47.547Z,20.52
2023-05-23T06:37:14.427Z,20.50
2023-05-23T06:39:41.259Z,20.46
2023-05-23T06:42:08.228Z,20.44
2023-05-23T06:44:35.080Z,20.41
2023-05-23T06:47:01.895Z,20.37
2023-05-23T06:49:29.088Z,20.35
2023-05-23T06:51:55.918Z,20.34
2023-05-23T06:54:22.780Z,20.29
2023-05-23T06:56:49.592Z,20.26
2023-05-23T06:59:16.478Z,20.19
2023-05-23T07:01:43.323Z,20.13
2023-05-23T07:04:12.007Z,20.07
2023-05-23T07:06:39.908Z,20.01
2023-05-23T07:09:06.869Z,19.95
2023-05-23T07:11:33.694Z,19.91
2023-05-23T07:14:00.872Z,19.82
2023-05-23T07:16:27.822Z,19.75
2023-05-23T07:18:54.705Z,19.68
2023-05-23T07:21:21.501Z,19.60
2023-05-23T07:23:48.323Z,19.56
2023-05-23T07:26:15.210Z,19.57
2023-05-23T07:28:42.067Z,19.55
2023-05-23T07:31:10.233Z,19.53
2023-05-23T07:33:37.104Z,19.52
2023-05-23T07:36:03.984Z,19.52
2023-05-23T07:38:30.999Z,19.47
2023-05-23T07:41:09.935Z,19.45
2023-05-23T07:43:38.091Z,19.43
2023-05-23T07:46:05.017Z,19.38
2023-05-23T07:48:32.229Z,19.33
2023-05-23T07:50:59.208Z,19.28
2023-05-23T07:53:26.383Z,19.22
2023-05-23T07:55:53.378Z,19.18
2023-05-23T07:58:20.185Z,19.12
2023-05-23T08:00:47.036Z,19.06
2023-05-23T08:03:13.959Z,19.02
2023-05-23T08:05:40.855Z,19.01
2023-05-23T08:08:07.782Z,18.96
2023-05-23T08:10:34.590Z,18.91
2023-05-23T08:13:06.624Z,18.87
2023-05-23T08:15:33.872Z,18.79
2023-05-23T08:18:00.868Z,18.76
2023-05-23T08:20:31.370Z,18.71
2023-05-23T08:23:02.629Z,18.71
2023-05-23T08:25:34.156Z,18.66
2023-05-23T08:28:01.709Z,18.61
2023-05-23T08:30:29.244Z,18.59
2023-05-23T08:32:57.021Z,18.58
2023-05-23T08:35:24.323Z,18.58
2023-05-23T08:37:52.608Z,18.55
2023-05-23T08:40:23.285Z,18.52
2023-05-23T08:42:51.320Z,18.47
2023-05-23T08:45:19.191Z,18.45
2023-05-23T08:47:47.332Z,18.44
2023-05-23T08:50:17.554Z,18.38
2023-05-23T08:52:56.960Z,18.34
2023-05-23T08:55:29.783Z,18.30
2023-05-23T08:58:01.557Z,18.25
2023-05-23T09:00:29.125Z,18.25
2023-05-23T09:02:57.238Z,18.22
2023-05-23T09:05:24.366Z,18.19
2023-05-23T09:07:51.761Z,18.17
2023-05-23T09:10:22.433Z,18.14
2023-05-23T09:12:49.855Z,18.08
2023-05-23T09:15:17.119Z,18.08
2023-05-23T09:17:45.134Z,18.04
2023-05-23T09:20:15.337Z,18.01
2023-05-23T09:22:49.139Z,18.00
2023-05-23T09:25:16.296Z,17.97
2023-05-23T09:27:45.762Z,17.96
2023-05-23T09:30:15.385Z,17.92
2023-05-23T09:32:42.592Z,17.94
2023-05-23T09:35:14.001Z,17.95
2023-05-23T09:37:45.911Z,17.94
2023-05-23T09:40:15.289Z,17.92
2023-05-23T09:42:44.925Z,17.89
2023-05-23T09:45:16.698Z,17.84
2023-05-23T09:47:53.786Z,17.81
2023-05-23T09:50:22.661Z,17.80
2023-05-23T09:52:51.054Z,17.77
2023-05-23T09:55:18.690Z,17.77
2023-05-23T09:57:50.581Z,17.75
2023-05-23T10:00:18.751Z,17.74
2023-05-23T10:03:14.688Z,17.68
2023-05-23T10:05:50.054Z,17.67
2023-05-23T10:08:39.407Z,17.66
2023-05-23T10:11:35.175Z,17.65
2023-05-23T10:14:07.057Z,17.68
2023-05-23T10:17:03.687Z,17.65
2023-05-23T10:19:54.783Z,17.58
2023-05-23T10:22:23.348Z,17.55
2023-05-23T10:24:51.073Z,17.53
2023-05-23T10:27:18.259Z,17.49
2023-05-23T10:29:45.280Z,17.44
2023-05-23T10:32:14.999Z,17.39
2023-05-23T10:35:06.282Z,17.38
2023-05-23T10:37:45.182Z,17.34
2023-05-23T10:40:26.636Z,17.31
2023-05-23T10:43:01.946Z,17.32
2023-05-23T10:45:29.081Z,17.35
2023-05-23T10:47:56.164Z,17.38
2023-05-23T10:50:37.272Z,17.41
2023-05-23T10:53:06.137Z,17.40
2023-05-23T10:55:37.150Z,17.40
2023-05-23T10:58:21.789Z,17.38
2023-05-23T11:01:02.270Z,17.27
2023-05-23T11:03:37.973Z,17.30
2023-05-23T11:06:05.969Z,17.28
2023-05-23T11:08:48.477Z,17.28
2023-05-23T11:11:15.928Z,17.24
2023-05-23T11:14:00.058Z,17.26
2023-05-23T11:16:42.178Z,17.22
2023-05-23T11:19:22.856Z,17.19
2023-05-23T11:21:56.151Z,17.19
2023-05-23T11:24:23.514Z,17.20
2023-05-23T11:27:01.100Z,17.19
2023-05-23T11:29:28.931Z,17.19
2023-05-23T11:31:57.330Z,17.18
2023-05-23T11:34:27.172Z,17.19
2023-05-23T11:36:56.166Z,17.19
2023-05-23T11:39:23.702Z,17.22
2023-05-23T11:42:03.748Z,17.21
2023-05-23T11:44:30.931Z,17.22
2023-05-23T11:47:15.837Z,17.26
2023-05-23T11:49:47.010Z,17.32
2023-05-23T11:52:14.729Z,17.35
2023-05-23T11:54:43.368Z,17.37
2023-05-23T11:57:11.360Z,17.37
2023-05-23T11:59:38.581Z,17.37
2023-05-23T12:02:07.982Z,17.37
2023-05-23T12:04:36.955Z,17.37
2023-05-23T12:07:06.454Z,17.41
2023-05-23T12:09:41.872Z,17.41
2023-05-23T12:12:08.733Z,17.40
2023-05-23T12:14:35.842Z,17.43
2023-05-23T12:17:02.760Z,17.46
2023-05-23T12:19:29.685Z,17.53
2023-05-23T12:21:56.580Z,17.62
2023-05-23T12:24:23.674Z,17.72
2023-05-23T12:27:00.197Z,17.82
2023-05-23T12:29:37.104Z,17.89
2023-05-23T12:32:06.949Z,17.94
2023-05-23T12:34:33.851Z,18.00
2023-05-23T12:37:17.954Z,18.02
2023-05-23T12:39:46.286Z,18.04
2023-05-23T12:42:13.186Z,18.11
2023-05-23T12:44:43.697Z,18.18
2023-05-23T12:47:10.755Z,18.25
2023-05-23T12:49:38.145Z,18.34
2023-05-23T12:52:05.084Z,18.42
2023-05-23T12:54:31.912Z,18.51
2023-05-23T12:56:58.721Z,18.63
2023-05-23T12:59:25.605Z,18.71
2023-05-23T13:01:52.513Z,18.76
2023-05-23T13:04:19.445Z,18.78
2023-05-23T13:06:46.711Z,18.82
2023-05-23T13:09:13.536Z,18.84
2023-05-23T13:11:41.614Z,18.86
2023-05-23T13:14:08.570Z,18.88
2023-05-23T13:16:36.293Z,18.91
2023-05-23T13:19:03.179Z,18.97
2023-05-23T13:21:30.176Z,19.03
2023-05-23T13:23:57.028Z,19.07
2023-05-23T13:26:23.861Z,19.17
2023-05-23T13:28:50.690Z,19.30
2023-05-23T13:31:17.631Z,19.40
2023-05-23T13:33:44.479Z,19.49
2023-05-23T13:36:11.341Z,19.62
2023-05-23T13:38:38.246Z,19.76
2023-05-23T13:41:05.133Z,19.86
2023-05-23T13:43:32.065Z,19.97
2023-05-23T13:45:59.155Z,20.03
2023-05-23T13:48:26.087Z,20.06
2023-05-23T13:50:53.107Z,20.06
2023-05-23T13:53:21.467Z,20.05
2023-05-23T13:55:48.417Z,20.08
2023-05-23T13:58:15.303Z,20.08
2023-05-23T14:00:43.157Z,20.10
2023-05-23T14:03:10.424Z,20.15
2023-05-23T14:05:37.435Z,20.20
2023-05-23T14:08:04.575Z,20.25
2023-05-23T14:10:33.281Z,20.28
2023-05-23T14:13:00.351Z,20.31
2023-05-23T14:15:28.020Z,20.36
2023-05-23T14:17:56.410Z,20.41
2023-05-23T14:20:23.654Z,20.42
2023-05-23T14:22:51.581Z,20.39
2023-05-23T14:25:18.864Z,20.34
2023-05-23T14:27:45.728Z,20.27
2023-05-23T14:30:13.063Z,20.23
2023-05-23T14:32:40.267Z,20.22
2023-05-23T14:35:10.587Z,20.21
2023-05-23T14:37:37.700Z,20.19
2023-05-23T14:40:10.159Z,20.14
2023-05-23T14:42:37.669Z,20.09
2023-05-23T14:45:05.034Z,20.10
2023-05-23T14:47:32.581Z,20.14
2023-05-23T14:49:59.784Z,20.15
2023-05-23T14:52:26.724Z,20.17
2023-05-23T14:54:53.527Z,20.17
2023-05-23T14:57:20.667Z,20.15
2023-05-23T14:59:47.744Z,20.17
2023-05-23T15:02:15.539Z,20.18
2023-05-23T15:04:42.641Z,20.19
2023-05-23T15:07:09.568Z,20.19
2023-05-23T15:09:36.484Z,20.20
2023-05-23T15:12:05.181Z,20.13
2023-05-23T15:14:32.176Z,20.05
2023-05-23T15:17:08.052Z,19.96
2023-05-23T15:19:36.774Z,19.87
2023-05-23T15:22:06.749Z,19.83
2023-05-23T15:24:34.970Z,19.77
2023-05-23T15:27:15.858Z,19.75
2023-05-23T15:29:46.785Z,19.71
2023-05-23T15:32:13.753Z,19.73
2023-05-23T15:34:40.754Z,19.78
2023-05-23T15:37:07.573Z,19.80
2023-05-23T15:39:34.438Z,19.82
2023-05-23T15:42:01.289Z,19.85
2023-05-23T15:44:28.158Z,19.85
2023-05-23T15:46:55.416Z,19.81
2023-05-23T15:49:26.462Z,19.82
2023-05-23T15:51:55.070Z,19.79
2023-05-23T15:54:22.170Z,19.74
2023-05-23T15:56:49.028Z,19.72
2023-05-23T15:59:16.300Z,19.66
2023-05-23T16:01:43.263Z,19.64
2023-05-23T16:04:10.192Z,19.62
2023-05-23T16:06:39.293Z,19.59
2023-05-23T16:09:06.339Z,19.57
2023-05-23T16:11:33.225Z,19.53
2023-05-23T16:14:00.085Z,19.48
2023-05-23T16:16:26.988Z,19.46
2023-05-23T16:18:54.007Z,19.45
2023-05-23T16:21:21.123Z,19.43
2023-05-23T16:23:51.316Z,19.41
2023-05-23T16:26:19.087Z,19.40
2023-05-23T16:28:45.903Z,19.42
2023-05-23T16:31:17.007Z,19.46
2023-05-23T16:33:44.841Z,19.48
2023-05-23T16:36:11.737Z,19.54
2023-05-23T16:38:38.800Z,19.62
2023-05-23T16:41:05.716Z,19.64
2023-05-23T16:43:33.424Z,19.61
2023-05-23T16:46:00.365Z,19.59
2023-05-23T16:48:27.338Z,19.60
2023-05-23T16:50:55.205Z,19.59
2023-05-23T16:53:22.239Z,19.61
2023-05-23T16:55:49.372Z,19.60
2023-05-23T16:58:18.645Z,19.63
2023-05-23T17:00:46.957Z,19.64
2023-05-23T17:03:13.843Z,19.64
2023-05-23T17:05:41.185Z,19.61
2023-05-23T17:08:08.322Z,19.58
2023-05-23T17:10:35.460Z,19.56
2023-05-23T17:13:02.246Z,19.51
2023-05-23T17:15:29.232Z,19.49
2023-05-23T17:17:56.144Z,19.45
2023-05-23T17:20:24.358Z,19.39
2023-05-23T17:22:51.883Z,19.31
2023-05-23T17:25:19.051Z,19.24
2023-05-23T17:27:46.252Z,19.11
2023-05-23T17:30:18.120Z,19.02
2023-05-23T17:32:49.737Z,18.93
2023-05-23T17:35:16.586Z,18.84
2023-05-23T17:37:44.782Z,18.77
2023-05-23T17:40:12.579Z,18.67
2023-05-23T17:42:40.718Z,18.61
2023-05-23T17:45:09.401Z,18.55
2023-05-23T17:47:36.344Z,18.51
2023-05-23T17:50:04.899Z,18.47
2023-05-23T17:52:32.474Z,18.45
2023-05-23T17:54:59.293Z,18.45
2023-05-23T17:57:26.750Z,18.43
2023-05-23T17:59:53.715Z,18.40
2023-05-23T18:02:20.563Z,18.39
2023-05-23T18:04:47.639Z,18.36
2023-05-23T18:07:18.550Z,18.37
2023-05-23T18:09:46.993Z,18.33
2023-05-23T18:12:14.688Z,18.29
2023-05-23T18:14:42.105Z,18.26
2023-05-23T18:17:09.728Z,18.23
2023-05-23T18:19:36.816Z,18.20
2023-05-23T18:22:03.811Z,18.19
2023-05-23T18:24:30.724Z,18.18
2023-05-23T18:26:58.272Z,18.13
2023-05-23T18:29:25.228Z,18.09
2023-05-23T18:31:52.047Z,18.06
2023-05-23T18:34:18.996Z,18.04
2023-05-23T18:36:46.142Z,18.02
2023-05-23T18:39:15.567Z,17.99
2023-05-23T18:41:42.754Z,17.94
2023-05-23T18:44:09.591Z,17.90
2023-05-23T18:46:36.686Z,17.84
2023-05-23T18:49:04.826Z,17.81
2023-05-23T18:51:32.432Z,17.76
2023-05-23T18:53:59.373Z,17.71
2023-05-23T18:56:26.896Z,17.67
2023-05-23T18:58:53.745Z,17.62
2023-05-23T19:01:21.347Z,17.58
2023-05-23T19:03:48.585Z,17.53
2023-05-23T19:06:15.864Z,17.50
2023-05-23T19:08:42.960Z,17.45
2023-05-23T19:11:10.793Z,17.40
2023-05-23T19:13:37.991Z,17.34
2023-05-23T19:16:05.093Z,17.29
2023-05-23T19:18:32.112Z,17.23
2023-05-23T19:20:59.158Z,17.20
2023-05-23T19:23:26.492Z,17.15
2023-05-23T19:25:53.389Z,17.12
2023-05-23T19:28:20.317Z,17.09
2023-05-23T19:30:47.297Z,17.05
2023-05-23T19:33:14.552Z,17.00
2023-05-23T19:35:41.571Z,16.96
2023-05-23T19:38:08.463Z,16.91
2023-05-23T19:40:35.365Z,16.89
2023-05-23T19:43:02.185Z,16.87
2023-05-23T19:45:29.020Z,16.83
2023-05-23T19:47:57.989Z,16.82
2023-05-23T19:50:24.866Z,16.78
2023-05-23T19:52:52.237Z,16.74
2023-05-23T19:55:19.501Z,16.70
2023-05-23T19:57:46.552Z,16.68
2023-05-23T20:00:14.732Z,16.65
2023-05-23T20:02:42.519Z,16.62
2023-05-23T20:05:09.628Z,16.58
2023-05-23T20:07:36.630Z,16.54
2023-05-23T20:10:04.130Z,16.50
2023-05-23T20:12:31.014Z,16.46
2023-05-23T20:14:57.843Z,16.42
2023-05-23T20:17:24.709Z,16.37
2023-05-23T20:19:51.641Z,16.34
2023-05-23T20:22:18.575Z,16.31
2023-05-23T20:24:46.624Z,16.27
2023-05-23T20:27:13.613Z,16.22
2023-05-23T20:29:40.679Z,16.18
2023-05-23T20:32:07.499Z,16.15
2023-05-23T20:34:34.424Z,16.11
2023-05-23T20:37:01.558Z,16.06
2023-05-23T20:39:28.412Z,16.01
2023-05-23T20:41:55.286Z,15.99
2023-05-23T20:44:22.145Z,15.96
2023-05-23T20:46:49.169Z,15.94
2023-05-23T20:49:16.589Z,15.91
2023-05-23T20:51:43.531Z,15.90
2023-05-23T20:54:10.434Z,15.86
2023-05-23T20:56:37.283Z,15.84
2023-05-23T20:59:04.125Z,15.81
2023-05-23T21:01:30.972Z,15.78
2023-05-23T21:03:57.985Z,15.76
2023-05-23T21:06:24.831Z,15.72
2023-05-23T21:08:51.654Z,15.70
2023-05-23T21:11:18.548Z,15.68
2023-05-23T21:13:45.620Z,15.67
2023-05-23T21:16:14.458Z,15.67
2023-05-23T21:18:41.600Z,15.67
2023-05-23T21:21:08.464Z,15.66
2023-05-23T21:23:35.349Z,15.66
2023-05-23T21:26:02.314Z,15.66
2023-05-23T21:28:29.156Z,15.62
2023-05-23T21:30:56.551Z,15.62
2023-05-23T21:33:23.435Z,15.57
2023-05-23T21:35:51.133Z,15.53
2023-05-23T21:38:17.992Z,15.49
2023-05-23T21:40:45.029Z,15.45
2023-05-23T21:43:12.132Z,15.42
2023-05-23T21:45:39.279Z,15.38
2023-05-23T21:48:06.190Z,15.36
2023-05-23T21:50:33.098Z,15.34
2023-05-23T21:52:59.918Z,15.30
2023-05-23T21:55:27.285Z,15.27
2023-05-23T21:57:54.170Z,15.24
2023-05-23T22:00:22.513Z,15.23
2023-05-23T22:02:49.453Z,15.24
2023-05-23T22:05:16.598Z,15.24
2023-05-23T22:07:43.458Z,15.25
2023-05-23T22:10:11.229Z,15.26
2023-05-23T22:12:38.668Z,15.21
2023-05-23T22:15:08.168Z,15.20
2023-05-23T22:17:35.263Z,15.16
2023-05-23T22:20:05.203Z,15.15
2023-05-23T22:22:32.184Z,15.11
2023-05-23T22:24:59.123Z,15.07
2023-05-23T22:27:26.043Z,15.02
2023-05-23T22:29:53.099Z,14.98
2023-05-23T22:32:22.849Z,14.94
2023-05-23T22:34:49.747Z,14.93
2023-05-23T22:37:18.322Z,14.90
2023-05-23T22:39:45.134Z,14.90
2023-05-23T22:42:11.986Z,14.90
2023-05-23T22:44:38.792Z,14.89
2023-05-23T22:47:10.119Z,14.88
2023-05-23T22:49:37.490Z,14.88
2023-05-23T22:52:04.709Z,14.86
2023-05-23T22:54:31.536Z,14.85
2023-05-23T22:56:58.372Z,14.85
2023-05-23T22:59:25.285Z,14.83
2023-05-23T23:01:52.203Z,14.80
2023-05-23T23:04:23.564Z,14.77
2023-05-23T23:06:53.522Z,14.78
2023-05-23T23:09:20.537Z,14.78
2023-05-23T23:11:47.367Z,14.76
2023-05-23T23:14:14.206Z,14.73
2023-05-23T23:16:42.533Z,14.70
2023-05-23T23:19:09.480Z,14.67
2023-05-23T23:21:37.559Z,14.63
2023-05-23T23:24:04.996Z,14.62
2023-05-23T23:26:31.840Z,14.60
2023-05-23T23:28:58.652Z,14.59
2023-05-23T23:31:25.483Z,14.57
2023-05-23T23:33:52.373Z,14.55
2023-05-23T23:36:19.172Z,14.53
2023-05-23T23:38:46.016Z,14.52
2023-05-23T23:41:12.900Z,14.52
2023-05-23T23:43:39.691Z,14.51
2023-05-23T23:46:06.550Z,14.52
2023-05-23T23:48:33.426Z,14.56
2023-05-23T23:51:00.302Z,14.58
2023-05-23T23:55:54.443Z,14.60
2023-05-23T23:58:21.254Z,14.61
